Portada
METAR-TAF:

METAR-TAF

Aeropuertos :

Aeropuerto Cherif Al Idrissi

Alhucemas, Marruecos

latitud: 35-11N, longitud: 003-51W, altitud: 27 m

Observación

El informe se hizo hace 44 minutos, a las 01:00 UTC
Viento 2 kt del oeste-noroeste
Temperatura 11°C
Humedad 71%
Presión 1018 hPa
Visibilidad 10 km o más
sin nubes por debajo de 1500 m y sin presencia de cumulonimbus.

METAR: GMTA 240100Z 30002KT CAVOK 11/06 Q1018 NOSIG

Hora: 02:44 (01:44 UTC)

Pronóstico

El informe se hizo hace 2 horas y 44 minutos, a las 23:00 UTC
Pronóstico válido del 24 a las 00 UTC al 25 a las 06 UTC
Viento 4 kt del sur
Visibilidad 10 km o más
Escasas nubes a una altura de 2000 ft

TAF: GMTA 232300Z 2400/2506 18004KT 9999 FEW020

Observaciones y pronósticos meteorológicos de más de 4000 aeropuertos (mensajes METAR y TAF).

Los puntos amarillos y rojos representan las estaciones disponibles.

Ponga el ratón en el punto deseado para ver el nombre de la estación.

Haga clic para ver las observaciones y los pronósticos meteorológicos.

Para cambiar el mapa : haga clic en los botones verdes con una cruz de color negro para hacer un zoom, en el botón verde con un guión para alejar o en las flechas verdes para mapas adyacentes.


METAR-TAF: